createdAt,value
2023-07-15T00:01:21.368Z,3.12
2023-07-15T00:03:47.872Z,3.51
2023-07-15T00:06:14.778Z,3.46
2023-07-15T00:08:41.374Z,3.44
2023-07-15T00:11:07.702Z,3.34
2023-07-15T00:13:34.066Z,3.45
2023-07-15T00:16:00.408Z,3.58
2023-07-15T00:18:26.976Z,3.59
2023-07-15T00:20:53.311Z,3.44
2023-07-15T00:23:19.639Z,3.40
2023-07-15T00:25:46.182Z,3.21
2023-07-15T00:28:12.554Z,3.65
2023-07-15T00:30:38.970Z,3.27
2023-07-15T00:33:05.406Z,3.36
2023-07-15T00:35:31.872Z,3.45
2023-07-15T00:37:58.460Z,3.66
2023-07-15T00:40:25.057Z,3.25
2023-07-15T00:42:51.543Z,3.61
2023-07-15T00:45:18.737Z,3.22
2023-07-15T00:47:45.082Z,3.42
2023-07-15T00:50:11.429Z,3.31
2023-07-15T00:52:37.737Z,3.20
2023-07-15T00:55:04.104Z,3.64
2023-07-15T00:57:30.492Z,3.53
2023-07-15T00:59:56.908Z,3.52
2023-07-15T01:02:23.370Z,3.35
2023-07-15T01:04:49.873Z,3.60
2023-07-15T01:07:16.227Z,3.26
2023-07-15T01:09:42.562Z,3.37
2023-07-15T01:12:08.929Z,3.24
2023-07-15T01:14:35.423Z,3.30
2023-07-15T01:17:01.800Z,3.50
2023-07-15T01:19:28.118Z,3.21
2023-07-15T01:21:54.549Z,3.25
2023-07-15T01:24:20.922Z,3.26
2023-07-15T01:26:47.438Z,3.09
2023-07-15T01:29:14.004Z,3.22
2023-07-15T01:31:41.456Z,3.56
2023-07-15T01:34:07.991Z,3.34
2023-07-15T01:36:34.435Z,3.15
2023-07-15T01:39:00.856Z,3.21
2023-07-15T01:41:27.260Z,3.25
2023-07-15T01:43:53.640Z,3.40
2023-07-15T01:46:20.099Z,3.26
2023-07-15T01:48:46.445Z,3.15
2023-07-15T01:51:12.790Z,3.32
2023-07-15T01:53:40.252Z,3.28
2023-07-15T01:56:06.643Z,3.36
2023-07-15T01:58:33.078Z,3.32
2023-07-15T02:00:59.502Z,3.39
2023-07-15T02:03:26.046Z,3.26
2023-07-15T02:05:52.482Z,3.40
2023-07-15T02:08:19.043Z,3.54
2023-07-15T02:10:45.420Z,3.51
2023-07-15T02:13:11.792Z,3.37
2023-07-15T02:15:38.114Z,3.34
2023-07-15T02:18:04.604Z,3.39
2023-07-15T02:20:31.097Z,3.35
2023-07-15T02:22:57.552Z,3.25
2023-07-15T02:25:23.996Z,3.33
2023-07-15T02:27:50.434Z,3.54
2023-07-15T02:30:16.858Z,3.14
2023-07-15T02:32:43.284Z,3.16
2023-07-15T02:35:09.685Z,2.99
2023-07-15T02:37:36.282Z,3.18
2023-07-15T02:40:03.104Z,3.01
2023-07-15T02:42:29.432Z,3.08
2023-07-15T02:44:55.942Z,3.19
2023-07-15T02:47:22.304Z,3.20
2023-07-15T02:49:48.647Z,3.17
2023-07-15T02:52:14.973Z,3.13
2023-07-15T02:54:41.292Z,3.11
2023-07-15T02:57:07.681Z,3.38
2023-07-15T02:59:34.075Z,3.29
2023-07-15T03:02:00.477Z,3.30
2023-07-15T03:04:26.817Z,3.40
2023-07-15T03:06:53.147Z,3.22
2023-07-15T03:09:19.525Z,3.48
2023-07-15T03:11:45.904Z,3.17
2023-07-15T03:14:12.274Z,3.24
2023-07-15T03:16:38.627Z,3.09
2023-07-15T03:19:04.956Z,3.17
2023-07-15T03:21:31.328Z,3.16
2023-07-15T03:23:57.892Z,3.49
2023-07-15T03:26:24.213Z,3.31
2023-07-15T03:28:50.833Z,3.70
2023-07-15T03:31:17.247Z,3.50
2023-07-15T03:33:43.661Z,3.43
2023-07-15T03:36:10.005Z,3.41
2023-07-15T03:38:37.400Z,3.55
2023-07-15T03:41:03.784Z,3.32
2023-07-15T03:43:30.191Z,3.51
2023-07-15T03:45:56.597Z,3.73
2023-07-15T03:48:22.935Z,3.33
2023-07-15T03:50:49.365Z,3.24
2023-07-15T03:53:15.909Z,3.38
2023-07-15T03:55:42.243Z,3.44
2023-07-15T03:58:08.562Z,3.56
2023-07-15T04:00:34.925Z,3.54
2023-07-15T04:03:01.362Z,3.02
2023-07-15T04:05:27.799Z,3.39
2023-07-15T04:07:54.139Z,3.23
2023-07-15T04:10:20.551Z,3.32
2023-07-15T04:12:46.892Z,3.65
2023-07-15T04:15:13.277Z,3.41
2023-07-15T04:17:39.830Z,3.34
2023-07-15T04:20:06.455Z,3.69
2023-07-15T04:22:32.839Z,3.47
2023-07-15T04:24:59.255Z,3.64
2023-07-15T04:27:25.844Z,3.42
2023-07-15T04:29:52.175Z,3.52
2023-07-15T04:32:18.693Z,3.71
2023-07-15T04:34:45.139Z,3.23
2023-07-15T04:37:11.469Z,3.37
2023-07-15T04:39:37.838Z,3.68
2023-07-15T04:42:04.287Z,3.41
2023-07-15T04:44:30.713Z,3.65
2023-07-15T04:46:57.034Z,3.76
2023-07-15T04:49:23.392Z,3.70
2023-07-15T04:51:49.715Z,3.95
2023-07-15T04:54:16.091Z,3.60
2023-07-15T04:56:44.745Z,3.73
2023-07-15T04:59:11.224Z,3.73
2023-07-15T05:01:37.981Z,3.79
2023-07-15T05:04:06.372Z,3.66
2023-07-15T05:06:32.762Z,3.79
2023-07-15T05:09:01.443Z,3.90
2023-07-15T05:11:27.802Z,3.69
2023-07-15T05:13:54.632Z,3.81
2023-07-15T05:16:21.136Z,3.91
2023-07-15T05:18:47.665Z,3.73
2023-07-15T05:21:14.209Z,3.69
2023-07-15T05:23:40.768Z,3.86
2023-07-15T05:26:07.336Z,3.88
2023-07-15T05:28:33.759Z,3.92
2023-07-15T05:31:00.169Z,3.90
2023-07-15T05:33:26.571Z,4.09
2023-07-15T05:35:52.897Z,4.35
2023-07-15T05:38:19.279Z,3.95
2023-07-15T05:40:45.626Z,4.24
2023-07-15T05:43:12.000Z,4.33
2023-07-15T05:45:38.401Z,4.38
2023-07-15T05:48:04.912Z,4.77
2023-07-15T05:50:31.416Z,4.40
2023-07-15T05:52:58.039Z,4.50
2023-07-15T05:55:24.470Z,4.44
2023-07-15T05:57:51.055Z,4.47
2023-07-15T06:00:17.380Z,4.20
2023-07-15T06:02:43.755Z,4.04
2023-07-15T06:05:10.183Z,4.29
2023-07-15T06:07:36.760Z,4.14
2023-07-15T06:10:03.141Z,4.07
2023-07-15T06:12:29.470Z,4.60
2023-07-15T06:14:55.844Z,4.51
2023-07-15T06:17:22.447Z,4.43
2023-07-15T06:19:48.919Z,4.27
2023-07-15T06:22:15.252Z,4.11
2023-07-15T06:24:41.590Z,4.28
2023-07-15T06:27:07.918Z,3.91
2023-07-15T06:29:34.311Z,4.28
2023-07-15T06:32:00.653Z,4.13
2023-07-15T06:34:26.988Z,3.90
2023-07-15T06:36:55.824Z,4.28
2023-07-15T06:39:22.553Z,3.75
2023-07-15T06:41:48.947Z,3.92
2023-07-15T06:44:15.279Z,3.69
2023-07-15T06:46:41.715Z,3.46
2023-07-15T06:49:08.061Z,3.67
2023-07-15T06:51:34.387Z,3.73
2023-07-15T06:54:00.733Z,13.41
2023-07-15T06:56:27.057Z,8.36
2023-07-15T06:58:53.373Z,7.07
2023-07-15T07:01:19.943Z,7.87
2023-07-15T07:03:46.616Z,4.73
2023-07-15T07:06:12.953Z,4.52
2023-07-15T07:08:39.287Z,3.88
2023-07-15T07:11:05.611Z,4.16
2023-07-15T07:13:32.011Z,4.16
2023-07-15T07:15:58.388Z,4.75
2023-07-15T07:18:24.818Z,4.33
2023-07-15T07:20:51.246Z,4.18
2023-07-15T07:23:17.643Z,3.80
2023-07-15T07:25:43.977Z,4.13
2023-07-15T07:28:10.311Z,4.06
2023-07-15T07:30:36.670Z,3.88
2023-07-15T07:33:03.088Z,4.35
2023-07-15T07:35:29.488Z,3.96
2023-07-15T07:37:55.854Z,3.88
2023-07-15T07:40:22.259Z,3.97
2023-07-15T07:42:48.624Z,3.85
2023-07-15T07:45:14.927Z,4.03
2023-07-15T07:47:41.295Z,4.13
2023-07-15T07:50:07.665Z,4.00
2023-07-15T07:52:34.039Z,4.02
2023-07-15T07:55:00.361Z,3.87
2023-07-15T07:57:26.679Z,3.85
2023-07-15T07:59:52.990Z,4.04
2023-07-15T08:02:19.395Z,3.97
2023-07-15T08:04:45.851Z,3.75
2023-07-15T08:07:12.439Z,3.81
2023-07-15T08:09:38.846Z,3.79
2023-07-15T08:12:05.296Z,3.91
2023-07-15T08:14:31.622Z,3.98
2023-07-15T08:16:58.026Z,4.08
2023-07-15T08:19:24.442Z,3.89
2023-07-15T08:21:50.819Z,3.73
2023-07-15T08:24:17.153Z,3.63
2023-07-15T08:26:43.544Z,3.65
2023-07-15T08:29:09.912Z,3.81
2023-07-15T08:31:36.367Z,3.57
2023-07-15T08:34:02.757Z,3.53
2023-07-15T08:36:29.115Z,3.43
2023-07-15T08:38:55.426Z,3.37
2023-07-15T08:41:21.789Z,3.44
2023-07-15T08:43:50.816Z,3.21
2023-07-15T08:46:17.687Z,3.75
2023-07-15T08:48:44.106Z,3.65
2023-07-15T08:51:10.426Z,3.80
2023-07-15T08:53:36.767Z,3.41
2023-07-15T08:56:03.170Z,3.76
2023-07-15T08:58:29.550Z,3.52
2023-07-15T09:00:56.026Z,3.38
2023-07-15T09:03:22.420Z,3.42
2023-07-15T09:05:48.851Z,4.07
2023-07-15T09:08:15.171Z,3.70
2023-07-15T09:10:41.569Z,4.08
2023-07-15T09:13:07.894Z,4.49
2023-07-15T09:15:34.273Z,4.32
2023-07-15T09:18:00.781Z,4.06
2023-07-15T09:20:27.276Z,3.90
2023-07-15T09:22:53.831Z,3.62
2023-07-15T09:25:20.341Z,3.63
2023-07-15T09:27:46.670Z,3.77
2023-07-15T09:30:13.042Z,3.87
2023-07-15T09:32:39.465Z,4.28
2023-07-15T09:35:05.864Z,4.02
2023-07-15T09:37:32.235Z,3.97
2023-07-15T09:39:58.638Z,3.90
2023-07-15T09:42:25.025Z,4.17
2023-07-15T09:44:51.428Z,3.99
2023-07-15T09:47:17.745Z,4.31
2023-07-15T09:49:44.115Z,3.82
2023-07-15T09:52:10.498Z,4.04
2023-07-15T09:54:36.882Z,3.77
2023-07-15T09:57:03.218Z,3.87
2023-07-15T09:59:29.549Z,4.05
2023-07-15T10:01:55.904Z,4.09
2023-07-15T10:04:22.352Z,4.09
2023-07-15T10:06:48.751Z,3.98
2023-07-15T10:09:15.074Z,3.75
2023-07-15T10:11:41.403Z,3.90
2023-07-15T10:14:07.711Z,3.72
2023-07-15T10:16:34.142Z,3.83
2023-07-15T10:19:00.558Z,3.99
2023-07-15T10:21:26.867Z,3.97
2023-07-15T10:23:53.181Z,3.79
2023-07-15T10:26:19.552Z,3.74
2023-07-15T10:28:45.879Z,4.02
2023-07-15T10:31:12.256Z,3.83
2023-07-15T10:33:38.639Z,3.79
2023-07-15T10:36:05.025Z,3.78
2023-07-15T10:38:31.345Z,4.15
2023-07-15T10:40:57.720Z,3.70
2023-07-15T10:43:24.097Z,4.04
2023-07-15T10:45:50.433Z,3.77
2023-07-15T10:48:16.795Z,3.67
2023-07-15T10:50:43.180Z,3.56
2023-07-15T10:53:09.576Z,3.87
2023-07-15T10:55:35.986Z,3.87
2023-07-15T10:58:02.315Z,3.45
2023-07-15T11:00:28.835Z,3.94
2023-07-15T11:02:55.310Z,3.78
2023-07-15T11:05:21.763Z,3.83
2023-07-15T11:07:48.159Z,3.70
2023-07-15T11:10:14.643Z,4.00
2023-07-15T11:12:41.089Z,3.78
2023-07-15T11:15:07.459Z,3.95
2023-07-15T11:17:33.888Z,3.71
2023-07-15T11:20:00.309Z,4.33
2023-07-15T11:22:26.664Z,4.39
2023-07-15T11:24:53.016Z,4.35
2023-07-15T11:27:19.505Z,4.31
2023-07-15T11:29:45.847Z,4.33
2023-07-15T11:32:12.161Z,4.16
2023-07-15T11:34:38.571Z,4.22
2023-07-15T11:37:04.981Z,4.23
2023-07-15T11:39:31.307Z,4.15
2023-07-15T11:41:57.625Z,4.00
2023-07-15T11:44:24.072Z,3.88
2023-07-15T11:46:50.656Z,3.83
2023-07-15T11:49:17.225Z,3.64
2023-07-15T11:51:43.694Z,3.57
2023-07-15T11:54:10.088Z,3.60
2023-07-15T11:56:39.217Z,3.33
2023-07-15T11:59:05.564Z,3.21
2023-07-15T12:01:31.934Z,3.17
2023-07-15T12:04:00.650Z,3.48
2023-07-15T12:06:27.578Z,3.09
2023-07-15T12:08:53.911Z,3.54
2023-07-15T12:11:20.284Z,3.39
2023-07-15T12:13:46.622Z,3.59
2023-07-15T12:16:13.337Z,3.40
2023-07-15T12:18:39.991Z,3.42
2023-07-15T12:21:06.337Z,3.38
2023-07-15T12:23:32.703Z,3.31
2023-07-15T12:25:59.100Z,3.48
2023-07-15T12:28:25.443Z,3.78
2023-07-15T12:30:51.827Z,3.23
2023-07-15T12:33:18.222Z,3.38
2023-07-15T12:35:44.602Z,3.32
2023-07-15T12:38:10.989Z,3.23
2023-07-15T12:40:37.368Z,3.60
2023-07-15T12:43:03.902Z,3.40
2023-07-15T12:45:30.290Z,3.68
2023-07-15T12:47:58.818Z,3.58
2023-07-15T12:50:25.470Z,3.67
2023-07-15T12:52:51.794Z,3.24
2023-07-15T12:55:18.097Z,3.61
2023-07-15T12:57:44.485Z,3.58
2023-07-15T13:00:10.808Z,3.54
2023-07-15T13:02:37.223Z,3.49
2023-07-15T13:05:03.613Z,3.44
2023-07-15T13:07:29.932Z,3.40
2023-07-15T13:09:56.489Z,3.47
2023-07-15T13:12:22.879Z,3.21
2023-07-15T13:14:49.265Z,3.66
2023-07-15T13:17:15.692Z,3.41
2023-07-15T13:19:42.017Z,3.46
2023-07-15T13:22:08.379Z,3.74
2023-07-15T13:24:34.714Z,3.87
2023-07-15T13:27:01.042Z,3.70
2023-07-15T13:29:27.381Z,3.54
2023-07-15T13:31:53.738Z,3.69
2023-07-15T13:34:20.129Z,3.70
2023-07-15T13:39:35.957Z,4.20
2023-07-15T13:44:44.792Z,4.12
2023-07-15T13:52:47.799Z,4.19
2023-07-15T14:32:20.019Z,3.54
2023-07-15T14:34:46.424Z,3.79
2023-07-15T14:37:13.106Z,4.04
2023-07-15T14:39:39.483Z,3.96
2023-07-15T14:42:05.888Z,4.06
2023-07-15T14:44:32.275Z,4.12
2023-07-15T14:46:58.688Z,4.14
2023-07-15T14:49:26.114Z,4.20
2023-07-15T14:51:52.628Z,3.93
2023-07-15T14:54:18.997Z,4.20
2023-07-15T14:56:45.377Z,4.25
2023-07-15T14:59:11.764Z,4.02
2023-07-15T15:01:38.254Z,4.14
2023-07-15T15:04:04.739Z,4.19
2023-07-15T15:06:31.136Z,4.04
2023-07-15T15:08:57.456Z,4.17
2023-07-15T15:11:23.804Z,4.26
2023-07-15T15:13:50.181Z,4.05
2023-07-15T15:16:16.517Z,4.04
2023-07-15T15:18:42.846Z,3.86
2023-07-15T15:21:09.242Z,3.95
2023-07-15T15:23:35.661Z,4.12
2023-07-15T15:26:02.006Z,3.67
2023-07-15T15:28:28.371Z,4.19
2023-07-15T15:30:54.751Z,4.33
2023-07-15T15:33:21.219Z,3.92
2023-07-15T15:35:47.622Z,3.91
2023-07-15T15:38:13.955Z,4.26
2023-07-15T15:40:40.324Z,4.26
2023-07-15T15:43:06.703Z,4.21
2023-07-15T15:45:33.069Z,4.24
2023-07-15T15:47:59.542Z,4.25
2023-07-15T15:50:25.909Z,4.17
2023-07-15T15:52:52.221Z,4.19
2023-07-15T15:55:18.584Z,4.32
2023-07-15T15:57:44.902Z,4.40
2023-07-15T16:00:11.211Z,4.31
2023-07-15T16:02:37.600Z,4.36
2023-07-15T16:05:04.017Z,4.22
2023-07-15T16:07:30.348Z,4.57
2023-07-15T16:09:56.711Z,4.29
2023-07-15T16:12:23.094Z,4.33
2023-07-15T16:14:49.475Z,4.51
2023-07-15T16:17:15.853Z,4.21
2023-07-15T16:19:42.166Z,4.44
2023-07-15T16:22:08.552Z,3.94
2023-07-15T16:24:34.937Z,4.35
2023-07-15T16:27:01.326Z,4.19
2023-07-15T16:29:27.664Z,4.30
2023-07-15T16:31:54.017Z,4.03
2023-07-15T16:34:20.407Z,4.35
2023-07-15T16:36:46.739Z,4.36
2023-07-15T16:39:13.063Z,4.46
2023-07-15T16:41:39.376Z,4.33
2023-07-15T16:44:05.703Z,4.26
2023-07-15T16:46:32.058Z,4.18
2023-07-15T16:48:58.394Z,4.48
2023-07-15T16:51:24.800Z,4.43
2023-07-15T16:53:51.127Z,4.38
2023-07-15T16:56:17.457Z,4.45
2023-07-15T16:58:43.825Z,4.57
2023-07-15T17:01:10.249Z,4.54
2023-07-15T17:03:36.708Z,4.47
2023-07-15T17:06:03.082Z,4.63
2023-07-15T17:08:29.413Z,4.54
2023-07-15T17:10:55.755Z,4.64
2023-07-15T17:13:22.081Z,4.46
2023-07-15T17:15:48.484Z,4.35
2023-07-15T17:18:14.929Z,4.68
2023-07-15T17:20:41.316Z,4.69
2023-07-15T17:23:07.799Z,4.93
2023-07-15T17:25:34.272Z,4.97
2023-07-15T17:28:00.620Z,4.62
2023-07-15T17:30:26.986Z,4.86
2023-07-15T17:32:53.373Z,4.50
2023-07-15T17:35:19.774Z,4.60
2023-07-15T17:37:46.096Z,4.53
2023-07-15T17:40:12.497Z,4.53
2023-07-15T17:42:38.875Z,4.87
2023-07-15T17:45:05.215Z,4.60
2023-07-15T17:47:31.587Z,4.57
2023-07-15T17:49:58.013Z,5.33
2023-07-15T17:52:24.439Z,5.07
2023-07-15T17:54:50.811Z,4.85
2023-07-15T17:57:17.154Z,4.86
2023-07-15T17:59:43.532Z,5.08
2023-07-15T18:02:09.861Z,5.08
2023-07-15T18:04:36.253Z,5.25
2023-07-15T18:07:02.668Z,4.90
2023-07-15T18:09:29.015Z,4.85
2023-07-15T18:11:55.363Z,5.11
2023-07-15T18:14:21.749Z,5.03
2023-07-15T18:16:48.062Z,4.99
2023-07-15T18:19:14.434Z,4.88
2023-07-15T18:21:40.825Z,4.92
2023-07-15T18:24:07.201Z,4.81
2023-07-15T18:26:33.584Z,5.20
2023-07-15T18:28:59.959Z,5.12
2023-07-15T18:31:26.381Z,4.67
2023-07-15T18:33:52.758Z,4.86
2023-07-15T18:36:19.124Z,5.30
2023-07-15T18:38:45.457Z,5.30
2023-07-15T18:41:11.777Z,4.92
2023-07-15T18:43:38.168Z,5.25
2023-07-15T18:46:04.526Z,5.18
2023-07-15T18:48:30.859Z,5.41
2023-07-15T18:50:57.209Z,5.50
2023-07-15T18:53:24.615Z,5.21
2023-07-15T18:55:50.946Z,5.25
2023-07-15T18:58:17.271Z,5.46
2023-07-15T19:00:43.704Z,5.13
2023-07-15T19:03:10.266Z,5.30
2023-07-15T19:05:36.644Z,5.79
2023-07-15T19:08:03.017Z,5.88
2023-07-15T19:10:29.407Z,6.16
2023-07-15T19:12:55.804Z,5.55
2023-07-15T19:15:22.220Z,6.08
2023-07-15T19:17:48.567Z,5.30
2023-07-15T19:20:14.967Z,5.17
2023-07-15T19:22:41.437Z,5.74
2023-07-15T19:25:07.973Z,5.76
2023-07-15T19:27:34.751Z,5.61
2023-07-15T19:30:01.917Z,5.62
2023-07-15T19:32:28.631Z,6.41
2023-07-15T19:34:55.033Z,6.64
2023-07-15T19:37:21.370Z,6.82
2023-07-15T19:39:47.702Z,7.28
2023-07-15T19:42:14.108Z,7.01
2023-07-15T19:44:40.499Z,6.82
2023-07-15T19:47:06.958Z,6.34
2023-07-15T19:49:33.377Z,6.45
2023-07-15T19:51:59.736Z,6.05
2023-07-15T19:54:26.147Z,6.28
2023-07-15T19:56:52.530Z,6.14
2023-07-15T19:59:18.911Z,6.35
2023-07-15T20:01:46.325Z,6.35
2023-07-15T20:04:12.821Z,6.47
2023-07-15T20:06:39.200Z,6.53
2023-07-15T20:09:05.547Z,6.14
2023-07-15T20:11:32.074Z,5.72
2023-07-15T20:13:58.682Z,5.68
2023-07-15T20:16:25.058Z,5.15
2023-07-15T20:18:51.530Z,5.11
2023-07-15T20:21:17.983Z,5.31
2023-07-15T20:23:44.423Z,5.43
2023-07-15T20:26:10.818Z,5.42
2023-07-15T20:28:37.193Z,5.55
2023-07-15T20:31:03.773Z,5.73
2023-07-15T20:33:30.227Z,5.39
2023-07-15T20:35:56.570Z,8.49
2023-07-15T20:38:22.974Z,8.37
2023-07-15T20:40:56.584Z,5.95
2023-07-15T20:43:24.282Z,5.04
2023-07-15T20:45:50.830Z,4.74
2023-07-15T20:48:17.292Z,4.45
2023-07-15T20:50:43.647Z,4.35
2023-07-15T20:53:10.071Z,4.61
2023-07-15T20:55:36.795Z,4.40
2023-07-15T20:58:03.214Z,4.31
2023-07-15T21:00:29.647Z,4.66
2023-07-15T21:02:56.146Z,4.66
2023-07-15T21:05:22.823Z,3.93
2023-07-15T21:07:49.173Z,4.25
2023-07-15T21:10:15.541Z,4.46
2023-07-15T21:12:41.932Z,4.65
2023-07-15T21:15:08.406Z,4.55
2023-07-15T21:17:34.846Z,5.01
2023-07-15T21:20:01.329Z,5.02
2023-07-15T21:22:27.799Z,4.78
2023-07-15T21:24:54.257Z,4.35
2023-07-15T21:27:20.785Z,4.49
2023-07-15T21:29:51.412Z,4.47
2023-07-15T21:32:17.845Z,4.35
2023-07-15T21:34:45.087Z,4.36
2023-07-15T21:37:13.984Z,4.29
2023-07-15T21:39:40.584Z,4.14
2023-07-15T21:42:07.143Z,3.94
2023-07-15T21:44:33.477Z,3.81
2023-07-15T21:47:00.213Z,4.05
2023-07-15T21:49:26.633Z,3.81
2023-07-15T21:51:53.020Z,3.70
2023-07-15T21:54:19.429Z,3.63
2023-07-15T21:56:45.829Z,3.49
2023-07-15T21:59:13.012Z,3.57
2023-07-15T22:01:39.479Z,3.67
2023-07-15T22:04:05.946Z,3.65
2023-07-15T22:06:32.368Z,3.70
2023-07-15T22:08:58.734Z,3.60
2023-07-15T22:11:25.773Z,3.61
2023-07-15T22:13:52.318Z,3.50
2023-07-15T22:16:19.981Z,3.21
2023-07-15T22:18:46.839Z,3.55
2023-07-15T22:21:13.251Z,3.51
2023-07-15T22:23:39.861Z,3.75
2023-07-15T22:26:06.766Z,3.48
2023-07-15T22:28:33.371Z,3.67
2023-07-15T22:30:59.724Z,3.38
2023-07-15T22:33:26.073Z,3.55
2023-07-15T22:35:52.397Z,3.16
2023-07-15T22:38:18.713Z,3.28
2023-07-15T22:40:45.052Z,3.18
2023-07-15T22:43:11.444Z,2.55
2023-07-15T22:45:52.071Z,2.40
2023-07-15T22:48:21.561Z,2.20
2023-07-15T22:50:47.894Z,2.26
2023-07-15T22:53:14.272Z,2.15
2023-07-15T22:55:40.625Z,2.04
2023-07-15T22:58:07.076Z,1.99
2023-07-15T23:00:33.600Z,1.92
2023-07-15T23:03:00.129Z,1.94
2023-07-15T23:05:30.871Z,1.73
2023-07-15T23:07:57.399Z,1.58
2023-07-15T23:10:23.812Z,1.61
2023-07-15T23:12:50.200Z,1.77
2023-07-15T23:15:16.612Z,1.50
2023-07-15T23:17:43.202Z,1.74
2023-07-15T23:20:09.922Z,1.54
2023-07-15T23:22:37.189Z,1.62
2023-07-15T23:25:03.578Z,1.59
2023-07-15T23:27:29.970Z,1.56
2023-07-15T23:29:56.358Z,1.39
2023-07-15T23:32:22.748Z,1.41
2023-07-15T23:34:49.104Z,1.32
2023-07-15T23:37:15.428Z,1.30
2023-07-15T23:39:41.774Z,1.40
2023-07-15T23:42:08.483Z,1.31
2023-07-15T23:44:34.879Z,1.32
2023-07-15T23:47:01.289Z,1.24
2023-07-15T23:49:29.230Z,1.26
2023-07-15T23:51:58.674Z,1.39
2023-07-15T23:54:25.094Z,1.16
2023-07-15T23:56:53.587Z,1.13
2023-07-15T23:59:19.979Z,1.01
